sensor_id;sensor_type;location;lat;lon;timestamp;temperature;humidity
57892;DHT22;43708;48.828;9.166;2023-02-28T00:00:27;19.90;63.50
57892;DHT22;43708;48.828;9.166;2023-02-28T00:02:53;19.90;63.40
57892;DHT22;43708;48.828;9.166;2023-02-28T00:05:20;20.00;63.30
57892;DHT22;43708;48.828;9.166;2023-02-28T00:07:47;20.00;63.20
57892;DHT22;43708;48.828;9.166;2023-02-28T00:10:17;20.10;63.00
57892;DHT22;43708;48.828;9.166;2023-02-28T00:12:50;20.10;62.80
57892;DHT22;43708;48.828;9.166;2023-02-28T00:15:16;20.20;62.80
57892;DHT22;43708;48.828;9.166;2023-02-28T00:17:42;20.20;62.70
57892;DHT22;43708;48.828;9.166;2023-02-28T00:20:08;20.30;62.70
57892;DHT22;43708;48.828;9.166;2023-02-28T00:22:36;20.30;62.50
57892;DHT22;43708;48.828;9.166;2023-02-28T00:25:03;20.30;62.40
57892;DHT22;43708;48.828;9.166;2023-02-28T00:27:29;20.40;62.40
57892;DHT22;43708;48.828;9.166;2023-02-28T00:29:55;20.50;62.30
57892;DHT22;43708;48.828;9.166;2023-02-28T00:32:21;20.50;62.30
57892;DHT22;43708;48.828;9.166;2023-02-28T00:34:46;20.50;62.20
57892;DHT22;43708;48.828;9.166;2023-02-28T00:37:12;20.50;62.20
57892;DHT22;43708;48.828;9.166;2023-02-28T00:39:39;20.50;62.20
57892;DHT22;43708;48.828;9.166;2023-02-28T00:42:05;20.60;62.20
57892;DHT22;43708;48.828;9.166;2023-02-28T00:44:31;20.60;62.20
57892;DHT22;43708;48.828;9.166;2023-02-28T00:46:58;20.50;62.20
57892;DHT22;43708;48.828;9.166;2023-02-28T00:49:24;20.60;62.30
57892;DHT22;43708;48.828;9.166;2023-02-28T00:51:50;20.60;62.30
57892;DHT22;43708;48.828;9.166;2023-02-28T00:54:17;20.50;62.30
57892;DHT22;43708;48.828;9.166;2023-02-28T00:56:42;20.50;62.30
57892;DHT22;43708;48.828;9.166;2023-02-28T00:59:08;20.60;62.40
57892;DHT22;43708;48.828;9.166;2023-02-28T01:01:34;20.50;62.50
57892;DHT22;43708;48.828;9.166;2023-02-28T01:03:59;20.50;62.40
57892;DHT22;43708;48.828;9.166;2023-02-28T01:06:25;20.50;62.50
57892;DHT22;43708;48.828;9.166;2023-02-28T01:08:51;20.50;62.50
57892;DHT22;43708;48.828;9.166;2023-02-28T01:11:17;20.50;62.50
57892;DHT22;43708;48.828;9.166;2023-02-28T01:13:45;20.40;62.50
57892;DHT22;43708;48.828;9.166;2023-02-28T01:16:11;20.40;62.50
57892;DHT22;43708;48.828;9.166;2023-02-28T01:18:39;20.40;62.60
57892;DHT22;43708;48.828;9.166;2023-02-28T01:21:06;20.30;62.60
57892;DHT22;43708;48.828;9.166;2023-02-28T01:23:32;20.30;62.60
57892;DHT22;43708;48.828;9.166;2023-02-28T01:26:08;20.20;62.60
57892;DHT22;43708;48.828;9.166;2023-02-28T01:28:33;20.20;62.70
57892;DHT22;43708;48.828;9.166;2023-02-28T01:30:59;20.20;62.80
57892;DHT22;43708;48.828;9.166;2023-02-28T01:33:25;20.20;62.80
57892;DHT22;43708;48.828;9.166;2023-02-28T01:36:00;20.10;62.80
57892;DHT22;43708;48.828;9.166;2023-02-28T01:38:27;20.10;62.70
57892;DHT22;43708;48.828;9.166;2023-02-28T01:40:53;20.10;63.60
57892;DHT22;43708;48.828;9.166;2023-02-28T01:43:27;20.10;62.80
57892;DHT22;43708;48.828;9.166;2023-02-28T01:45:54;20.10;62.80
57892;DHT22;43708;48.828;9.166;2023-02-28T01:48:25;20.10;62.80
57892;DHT22;43708;48.828;9.166;2023-02-28T01:50:52;20.10;62.80
57892;DHT22;43708;48.828;9.166;2023-02-28T01:53:23;20.10;62.80
57892;DHT22;43708;48.828;9.166;2023-02-28T01:55:53;20.10;62.80
57892;DHT22;43708;48.828;9.166;2023-02-28T01:58:19;20.10;62.80
57892;DHT22;43708;48.828;9.166;2023-02-28T02:00:45;20.10;62.80
57892;DHT22;43708;48.828;9.166;2023-02-28T02:03:16;20.10;62.70
57892;DHT22;43708;48.828;9.166;2023-02-28T02:05:46;20.10;62.70
57892;DHT22;43708;48.828;9.166;2023-02-28T02:08:25;20.10;62.70
57892;DHT22;43708;48.828;9.166;2023-02-28T02:10:57;20.10;62.70
57892;DHT22;43708;48.828;9.166;2023-02-28T02:16:45;20.10;62.70
57892;DHT22;43708;48.828;9.166;2023-02-28T02:27:18;20.00;62.50
57892;DHT22;43708;48.828;9.166;2023-02-28T02:35:42;19.90;62.60
57892;DHT22;43708;48.828;9.166;2023-02-28T02:43:36;19.80;62.60
57892;DHT22;43708;48.828;9.166;2023-02-28T02:46:19;19.80;62.60
57892;DHT22;43708;48.828;9.166;2023-02-28T02:48:46;19.80;62.70
57892;DHT22;43708;48.828;9.166;2023-02-28T02:51:17;19.80;62.70
57892;DHT22;43708;48.828;9.166;2023-02-28T02:53:52;19.70;62.50
57892;DHT22;43708;48.828;9.166;2023-02-28T02:56:21;19.80;62.60
57892;DHT22;43708;48.828;9.166;2023-02-28T02:58:49;19.70;62.60
57892;DHT22;43708;48.828;9.166;2023-02-28T03:01:22;19.70;62.60
57892;DHT22;43708;48.828;9.166;2023-02-28T03:03:58;19.70;62.60
57892;DHT22;43708;48.828;9.166;2023-02-28T03:06:25;19.70;62.60
57892;DHT22;43708;48.828;9.166;2023-02-28T03:08:51;19.70;62.50
57892;DHT22;43708;48.828;9.166;2023-02-28T03:11:17;19.70;62.50
57892;DHT22;43708;48.828;9.166;2023-02-28T03:14:03;19.80;62.40
57892;DHT22;43708;48.828;9.166;2023-02-28T03:27:55;20.10;61.70
57892;DHT22;43708;48.828;9.166;2023-02-28T03:33:16;20.20;61.50
57892;DHT22;43708;48.828;9.166;2023-02-28T03:35:50;20.20;61.30
57892;DHT22;43708;48.828;9.166;2023-02-28T03:38:18;20.30;61.20
57892;DHT22;43708;48.828;9.166;2023-02-28T03:40:57;20.40;61.20
57892;DHT22;43708;48.828;9.166;2023-02-28T03:43:29;20.40;61.10
57892;DHT22;43708;48.828;9.166;2023-02-28T03:45:59;20.40;61.00
57892;DHT22;43708;48.828;9.166;2023-02-28T03:51:22;20.50;61.10
57892;DHT22;43708;48.828;9.166;2023-02-28T03:53:54;20.40;61.00
57892;DHT22;43708;48.828;9.166;2023-02-28T03:56:39;20.40;61.00
57892;DHT22;43708;48.828;9.166;2023-02-28T04:01:53;20.40;61.10
57892;DHT22;43708;48.828;9.166;2023-02-28T04:04:20;20.40;61.10
57892;DHT22;43708;48.828;9.166;2023-02-28T04:06:50;20.30;61.10
57892;DHT22;43708;48.828;9.166;2023-02-28T04:09:16;20.30;61.20
57892;DHT22;43708;48.828;9.166;2023-02-28T04:11:50;20.30;61.30
57892;DHT22;43708;48.828;9.166;2023-02-28T04:14:17;20.30;61.40
57892;DHT22;43708;48.828;9.166;2023-02-28T04:16:43;20.20;61.30
57892;DHT22;43708;48.828;9.166;2023-02-28T04:19:10;20.20;61.40
57892;DHT22;43708;48.828;9.166;2023-02-28T04:21:38;20.20;61.50
57892;DHT22;43708;48.828;9.166;2023-02-28T04:24:05;20.10;61.40
57892;DHT22;43708;48.828;9.166;2023-02-28T04:26:33;20.10;61.40
57892;DHT22;43708;48.828;9.166;2023-02-28T04:28:59;20.10;62.10
57892;DHT22;43708;48.828;9.166;2023-02-28T04:31:25;20.10;61.50
57892;DHT22;43708;48.828;9.166;2023-02-28T04:33:51;20.00;61.60
57892;DHT22;43708;48.828;9.166;2023-02-28T04:36:17;20.00;61.60
57892;DHT22;43708;48.828;9.166;2023-02-28T04:38:44;20.00;61.70
57892;DHT22;43708;48.828;9.166;2023-02-28T04:41:09;19.90;61.60
57892;DHT22;43708;48.828;9.166;2023-02-28T04:43:35;19.80;61.60
57892;DHT22;43708;48.828;9.166;2023-02-28T04:46:03;19.90;62.50
57892;DHT22;43708;48.828;9.166;2023-02-28T04:48:31;19.80;61.70
57892;DHT22;43708;48.828;9.166;2023-02-28T04:51:06;19.80;61.70
57892;DHT22;43708;48.828;9.166;2023-02-28T04:53:32;19.80;61.70
57892;DHT22;43708;48.828;9.166;2023-02-28T04:55:58;19.80;61.80
57892;DHT22;43708;48.828;9.166;2023-02-28T04:58:24;19.80;61.70
57892;DHT22;43708;48.828;9.166;2023-02-28T05:00:51;19.80;61.70
57892;DHT22;43708;48.828;9.166;2023-02-28T05:03:16;19.80;61.60
57892;DHT22;43708;48.828;9.166;2023-02-28T05:05:42;19.90;61.60
57892;DHT22;43708;48.828;9.166;2023-02-28T05:08:08;19.90;61.60
57892;DHT22;43708;48.828;9.166;2023-02-28T05:10:35;19.90;61.50
57892;DHT22;43708;48.828;9.166;2023-02-28T05:13:01;20.00;61.50
57892;DHT22;43708;48.828;9.166;2023-02-28T05:15:26;20.00;61.30
57892;DHT22;43708;48.828;9.166;2023-02-28T05:17:52;20.00;61.20
57892;DHT22;43708;48.828;9.166;2023-02-28T05:20:17;20.10;61.10
57892;DHT22;43708;48.828;9.166;2023-02-28T05:22:44;20.10;61.00
57892;DHT22;43708;48.828;9.166;2023-02-28T05:25:16;20.10;60.90
57892;DHT22;43708;48.828;9.166;2023-02-28T05:27:41;20.10;60.90
57892;DHT22;43708;48.828;9.166;2023-02-28T05:30:08;20.10;60.80
57892;DHT22;43708;48.828;9.166;2023-02-28T05:32:36;20.20;60.90
57892;DHT22;43708;48.828;9.166;2023-02-28T05:35:02;20.20;60.90
57892;DHT22;43708;48.828;9.166;2023-02-28T05:37:28;20.20;60.80
57892;DHT22;43708;48.828;9.166;2023-02-28T05:39:53;20.20;60.90
57892;DHT22;43708;48.828;9.166;2023-02-28T05:42:19;20.20;60.80
57892;DHT22;43708;48.828;9.166;2023-02-28T05:44:44;20.20;60.80
57892;DHT22;43708;48.828;9.166;2023-02-28T05:47:10;20.20;60.80
57892;DHT22;43708;48.828;9.166;2023-02-28T05:49:37;20.20;60.80
57892;DHT22;43708;48.828;9.166;2023-02-28T05:52:03;20.20;60.80
57892;DHT22;43708;48.828;9.166;2023-02-28T05:54:29;20.20;60.80
57892;DHT22;43708;48.828;9.166;2023-02-28T05:56:54;20.10;60.70
57892;DHT22;43708;48.828;9.166;2023-02-28T05:59:20;20.20;60.70
57892;DHT22;43708;48.828;9.166;2023-02-28T06:01:46;20.20;60.80
57892;DHT22;43708;48.828;9.166;2023-02-28T06:04:16;20.20;60.70
57892;DHT22;43708;48.828;9.166;2023-02-28T06:06:45;20.10;60.70
57892;DHT22;43708;48.828;9.166;2023-02-28T06:09:11;20.20;60.70
57892;DHT22;43708;48.828;9.166;2023-02-28T06:11:37;20.10;60.70
57892;DHT22;43708;48.828;9.166;2023-02-28T06:14:04;20.10;60.70
57892;DHT22;43708;48.828;9.166;2023-02-28T06:16:31;20.10;60.70
57892;DHT22;43708;48.828;9.166;2023-02-28T06:19:02;20.10;60.70
57892;DHT22;43708;48.828;9.166;2023-02-28T06:21:28;20.10;60.70
57892;DHT22;43708;48.828;9.166;2023-02-28T06:23:55;20.10;60.80
57892;DHT22;43708;48.828;9.166;2023-02-28T06:26:21;20.10;60.80
57892;DHT22;43708;48.828;9.166;2023-02-28T06:28:47;20.00;60.80
57892;DHT22;43708;48.828;9.166;2023-02-28T06:31:15;20.00;60.80
57892;DHT22;43708;48.828;9.166;2023-02-28T06:33:43;20.00;60.80
57892;DHT22;43708;48.828;9.166;2023-02-28T06:36:10;20.00;60.80
57892;DHT22;43708;48.828;9.166;2023-02-28T06:38:38;20.00;60.90
57892;DHT22;43708;48.828;9.166;2023-02-28T06:41:04;19.90;60.90
57892;DHT22;43708;48.828;9.166;2023-02-28T06:43:33;19.90;60.90
57892;DHT22;43708;48.828;9.166;2023-02-28T06:46:03;19.90;60.90
57892;DHT22;43708;48.828;9.166;2023-02-28T06:48:29;19.90;60.90
57892;DHT22;43708;48.828;9.166;2023-02-28T06:51:11;19.90;60.90
57892;DHT22;43708;48.828;9.166;2023-02-28T06:53:38;20.10;61.00
57892;DHT22;43708;48.828;9.166;2023-02-28T06:56:09;20.10;60.90
57892;DHT22;43708;48.828;9.166;2023-02-28T06:58:36;20.10;60.80
57892;DHT22;43708;48.828;9.166;2023-02-28T07:01:03;20.10;60.60
57892;DHT22;43708;48.828;9.166;2023-02-28T07:03:29;20.10;60.50
57892;DHT22;43708;48.828;9.166;2023-02-28T07:05:54;20.10;60.40
57892;DHT22;43708;48.828;9.166;2023-02-28T07:08:22;20.10;60.30
57892;DHT22;43708;48.828;9.166;2023-02-28T07:10:52;20.10;60.40
57892;DHT22;43708;48.828;9.166;2023-02-28T07:13:17;20.10;60.50
57892;DHT22;43708;48.828;9.166;2023-02-28T07:15:43;20.20;60.50
57892;DHT22;43708;48.828;9.166;2023-02-28T07:18:08;20.30;60.60
57892;DHT22;43708;48.828;9.166;2023-02-28T07:20:34;20.20;60.60
57892;DHT22;43708;48.828;9.166;2023-02-28T07:23:00;20.30;60.60
57892;DHT22;43708;48.828;9.166;2023-02-28T07:25:27;20.30;60.50
57892;DHT22;43708;48.828;9.166;2023-02-28T07:27:54;20.30;60.40
57892;DHT22;43708;48.828;9.166;2023-02-28T07:30:20;20.40;60.50
57892;DHT22;43708;48.828;9.166;2023-02-28T07:32:45;20.30;60.50
57892;DHT22;43708;48.828;9.166;2023-02-28T07:35:11;20.30;60.50
57892;DHT22;43708;48.828;9.166;2023-02-28T07:37:37;20.30;60.60
57892;DHT22;43708;48.828;9.166;2023-02-28T07:40:04;20.30;60.70
57892;DHT22;43708;48.828;9.166;2023-02-28T07:42:32;20.30;60.80
57892;DHT22;43708;48.828;9.166;2023-02-28T07:44:58;20.20;60.80
57892;DHT22;43708;48.828;9.166;2023-02-28T07:47:24;20.10;60.80
57892;DHT22;43708;48.828;9.166;2023-02-28T07:49:50;20.10;60.80
57892;DHT22;43708;48.828;9.166;2023-02-28T07:52:16;20.10;60.80
57892;DHT22;43708;48.828;9.166;2023-02-28T07:54:41;20.00;60.80
57892;DHT22;43708;48.828;9.166;2023-02-28T07:57:07;20.00;60.80
57892;DHT22;43708;48.828;9.166;2023-02-28T07:59:33;20.00;60.80
57892;DHT22;43708;48.828;9.166;2023-02-28T08:01:59;19.90;60.80
57892;DHT22;43708;48.828;9.166;2023-02-28T08:04:25;19.90;60.70
57892;DHT22;43708;48.828;9.166;2023-02-28T08:06:50;19.90;60.60
57892;DHT22;43708;48.828;9.166;2023-02-28T08:09:19;19.80;60.50
57892;DHT22;43708;48.828;9.166;2023-02-28T08:11:45;19.80;60.10
57892;DHT22;43708;48.828;9.166;2023-02-28T08:14:11;19.80;60.20
57892;DHT22;43708;48.828;9.166;2023-02-28T08:16:37;19.70;60.10
57892;DHT22;43708;48.828;9.166;2023-02-28T08:19:04;19.70;60.10
57892;DHT22;43708;48.828;9.166;2023-02-28T08:21:29;19.70;60.10
57892;DHT22;43708;48.828;9.166;2023-02-28T08:23:55;19.70;60.00
57892;DHT22;43708;48.828;9.166;2023-02-28T08:26:22;19.70;60.00
57892;DHT22;43708;48.828;9.166;2023-02-28T08:28:48;19.70;60.00
57892;DHT22;43708;48.828;9.166;2023-02-28T08:31:15;19.70;60.80
57892;DHT22;43708;48.828;9.166;2023-02-28T08:33:42;19.60;60.00
57892;DHT22;43708;48.828;9.166;2023-02-28T08:36:10;19.60;60.00
57892;DHT22;43708;48.828;9.166;2023-02-28T08:38:37;19.60;59.90
57892;DHT22;43708;48.828;9.166;2023-02-28T08:41:07;19.60;59.90
57892;DHT22;43708;48.828;9.166;2023-02-28T08:43:35;19.60;59.90
57892;DHT22;43708;48.828;9.166;2023-02-28T08:46:01;19.60;59.90
57892;DHT22;43708;48.828;9.166;2023-02-28T08:48:28;19.60;59.80
57892;DHT22;43708;48.828;9.166;2023-02-28T08:51:00;19.60;59.80
57892;DHT22;43708;48.828;9.166;2023-02-28T08:53:26;19.60;59.80
57892;DHT22;43708;48.828;9.166;2023-02-28T08:56:02;19.60;59.80
57892;DHT22;43708;48.828;9.166;2023-02-28T08:58:28;19.60;59.70
57892;DHT22;43708;48.828;9.166;2023-02-28T09:00:54;19.60;59.70
57892;DHT22;43708;48.828;9.166;2023-02-28T09:03:21;19.60;59.70
57892;DHT22;43708;48.828;9.166;2023-02-28T09:05:58;19.60;59.70
57892;DHT22;43708;48.828;9.166;2023-02-28T09:08:26;19.60;59.70
57892;DHT22;43708;48.828;9.166;2023-02-28T09:10:53;19.60;59.60
57892;DHT22;43708;48.828;9.166;2023-02-28T09:13:19;19.60;59.60
57892;DHT22;43708;48.828;9.166;2023-02-28T09:15:45;19.60;59.60
57892;DHT22;43708;48.828;9.166;2023-02-28T09:18:11;19.60;59.60
57892;DHT22;43708;48.828;9.166;2023-02-28T09:20:39;19.70;59.60
57892;DHT22;43708;48.828;9.166;2023-02-28T09:23:08;19.60;59.50
57892;DHT22;43708;48.828;9.166;2023-02-28T09:25:35;19.70;59.60
57892;DHT22;43708;48.828;9.166;2023-02-28T09:28:00;19.70;59.60
57892;DHT22;43708;48.828;9.166;2023-02-28T09:30:26;19.70;59.60
57892;DHT22;43708;48.828;9.166;2023-02-28T09:32:52;19.60;59.50
57892;DHT22;43708;48.828;9.166;2023-02-28T09:35:19;19.70;59.60
57892;DHT22;43708;48.828;9.166;2023-02-28T09:37:46;19.70;59.60
57892;DHT22;43708;48.828;9.166;2023-02-28T09:40:13;19.70;59.60
57892;DHT22;43708;48.828;9.166;2023-02-28T09:42:40;19.70;59.60
57892;DHT22;43708;48.828;9.166;2023-02-28T09:45:26;19.70;59.60
57892;DHT22;43708;48.828;9.166;2023-02-28T09:47:55;19.70;59.60
57892;DHT22;43708;48.828;9.166;2023-02-28T09:53:06;19.60;59.60
57892;DHT22;43708;48.828;9.166;2023-02-28T09:55:40;19.60;59.60
57892;DHT22;43708;48.828;9.166;2023-02-28T09:58:20;19.60;59.60
57892;DHT22;43708;48.828;9.166;2023-02-28T10:00:58;19.60;59.60
57892;DHT22;43708;48.828;9.166;2023-02-28T10:03:35;19.60;59.60
57892;DHT22;43708;48.828;9.166;2023-02-28T10:06:05;19.60;59.60
57892;DHT22;43708;48.828;9.166;2023-02-28T10:11:13;19.60;59.60
57892;DHT22;43708;48.828;9.166;2023-02-28T10:16:25;19.60;59.60
57892;DHT22;43708;48.828;9.166;2023-02-28T10:19:04;19.60;59.60
57892;DHT22;43708;48.828;9.166;2023-02-28T10:21:47;19.60;59.70
57892;DHT22;43708;48.828;9.166;2023-02-28T10:24:23;19.60;59.70
57892;DHT22;43708;48.828;9.166;2023-02-28T10:27:00;19.60;59.70
57892;DHT22;43708;48.828;9.166;2023-02-28T10:29:27;19.60;59.60
57892;DHT22;43708;48.828;9.166;2023-02-28T10:31:52;19.50;59.50
57892;DHT22;43708;48.828;9.166;2023-02-28T10:34:19;19.50;59.50
57892;DHT22;43708;48.828;9.166;2023-02-28T10:36:45;19.60;59.60
57892;DHT22;43708;48.828;9.166;2023-02-28T10:42:01;19.60;59.60
57892;DHT22;43708;48.828;9.166;2023-02-28T10:44:27;19.60;59.50
57892;DHT22;43708;48.828;9.166;2023-02-28T10:46:52;19.60;59.50
57892;DHT22;43708;48.828;9.166;2023-02-28T10:49:24;19.60;59.50
57892;DHT22;43708;48.828;9.166;2023-02-28T10:51:54;19.60;59.60
57892;DHT22;43708;48.828;9.166;2023-02-28T10:54:33;19.60;59.60
57892;DHT22;43708;48.828;9.166;2023-02-28T10:57:19;19.50;59.60
57892;DHT22;43708;48.828;9.166;2023-02-28T10:59:46;19.50;59.60
57892;DHT22;43708;48.828;9.166;2023-02-28T11:02:35;19.50;59.60
57892;DHT22;43708;48.828;9.166;2023-02-28T11:07:53;19.60;59.50
57892;DHT22;43708;48.828;9.166;2023-02-28T11:10:20;19.60;60.10
57892;DHT22;43708;48.828;9.166;2023-02-28T11:12:48;19.60;59.50
57892;DHT22;43708;48.828;9.166;2023-02-28T11:15:21;19.60;59.50
57892;DHT22;43708;48.828;9.166;2023-02-28T11:18:00;19.60;59.50
57892;DHT22;43708;48.828;9.166;2023-02-28T11:20:28;19.60;59.60
57892;DHT22;43708;48.828;9.166;2023-02-28T11:22:56;19.60;59.60
57892;DHT22;43708;48.828;9.166;2023-02-28T11:25:36;19.60;59.60
57892;DHT22;43708;48.828;9.166;2023-02-28T11:28:06;19.60;59.60
57892;DHT22;43708;48.828;9.166;2023-02-28T11:31:20;19.60;59.60
57892;DHT22;43708;48.828;9.166;2023-02-28T11:33:52;19.60;59.50
57892;DHT22;43708;48.828;9.166;2023-02-28T11:36:30;19.60;59.60
57892;DHT22;43708;48.828;9.166;2023-02-28T11:38:59;19.60;59.50
57892;DHT22;43708;48.828;9.166;2023-02-28T11:42:07;19.60;59.50
57892;DHT22;43708;48.828;9.166;2023-02-28T11:47:52;19.70;59.40
57892;DHT22;43708;48.828;9.166;2023-02-28T11:53:48;19.70;59.30
57892;DHT22;43708;48.828;9.166;2023-02-28T11:56:21;19.80;59.40
57892;DHT22;43708;48.828;9.166;2023-02-28T12:02:15;19.80;59.20
57892;DHT22;43708;48.828;9.166;2023-02-28T12:10:20;19.80;59.10
57892;DHT22;43708;48.828;9.166;2023-02-28T12:13:10;19.80;59.10
57892;DHT22;43708;48.828;9.166;2023-02-28T12:18:59;19.90;59.00
57892;DHT22;43708;48.828;9.166;2023-02-28T12:27:07;19.90;59.00
57892;DHT22;43708;48.828;9.166;2023-02-28T12:29:46;19.90;59.00
57892;DHT22;43708;48.828;9.166;2023-02-28T12:32:27;19.80;59.00
57892;DHT22;43708;48.828;9.166;2023-02-28T12:35:02;19.90;59.10
57892;DHT22;43708;48.828;9.166;2023-02-28T12:37:51;19.90;59.20
57892;DHT22;43708;48.828;9.166;2023-02-28T12:40:23;19.90;59.10
57892;DHT22;43708;48.828;9.166;2023-02-28T12:42:59;19.90;59.20
57892;DHT22;43708;48.828;9.166;2023-02-28T12:45:50;19.90;59.20
57892;DHT22;43708;48.828;9.166;2023-02-28T12:48:42;19.90;59.30
57892;DHT22;43708;48.828;9.166;2023-02-28T12:51:09;19.90;59.30
57892;DHT22;43708;48.828;9.166;2023-02-28T12:56:20;20.00;59.30
57892;DHT22;43708;48.828;9.166;2023-02-28T12:59:03;20.00;59.30
57892;DHT22;43708;48.828;9.166;2023-02-28T13:01:42;20.00;59.30
57892;DHT22;43708;48.828;9.166;2023-02-28T13:04:36;20.00;59.40
57892;DHT22;43708;48.828;9.166;2023-02-28T13:09:52;20.00;59.40
57892;DHT22;43708;48.828;9.166;2023-02-28T13:12:18;20.10;59.40
57892;DHT22;43708;48.828;9.166;2023-02-28T13:14:45;20.10;59.40
57892;DHT22;43708;48.828;9.166;2023-02-28T13:17:14;20.10;59.30
57892;DHT22;43708;48.828;9.166;2023-02-28T13:19:58;20.10;59.40
57892;DHT22;43708;48.828;9.166;2023-02-28T13:24:57;20.10;59.50
57892;DHT22;43708;48.828;9.166;2023-02-28T13:27:32;20.10;59.60
57892;DHT22;43708;48.828;9.166;2023-02-28T13:29:58;20.10;59.60
57892;DHT22;43708;48.828;9.166;2023-02-28T13:32:32;20.10;59.60
57892;DHT22;43708;48.828;9.166;2023-02-28T13:39:57;20.10;59.50
57892;DHT22;43708;48.828;9.166;2023-02-28T13:42:32;20.10;59.60
57892;DHT22;43708;48.828;9.166;2023-02-28T13:52:56;20.10;59.70
57892;DHT22;43708;48.828;9.166;2023-02-28T14:01:08;20.30;59.60
57892;DHT22;43708;48.828;9.166;2023-02-28T14:04:14;20.30;59.50
57892;DHT22;43708;48.828;9.166;2023-02-28T14:06:51;20.20;59.40
57892;DHT22;43708;48.828;9.166;2023-02-28T14:11:50;20.20;60.00
57892;DHT22;43708;48.828;9.166;2023-02-28T14:17:07;20.20;59.40
57892;DHT22;43708;48.828;9.166;2023-02-28T14:19:37;20.20;59.40
57892;DHT22;43708;48.828;9.166;2023-02-28T14:25:17;20.20;59.40
57892;DHT22;43708;48.828;9.166;2023-02-28T14:27:50;20.20;59.40
57892;DHT22;43708;48.828;9.166;2023-02-28T14:36:32;20.10;59.30
57892;DHT22;43708;48.828;9.166;2023-02-28T14:39:04;20.10;59.30
57892;DHT22;43708;48.828;9.166;2023-02-28T14:41:34;20.10;59.20
57892;DHT22;43708;48.828;9.166;2023-02-28T14:44:11;20.10;59.20
57892;DHT22;43708;48.828;9.166;2023-02-28T14:46:40;20.20;59.20
57892;DHT22;43708;48.828;9.166;2023-02-28T14:49:11;20.20;59.10
57892;DHT22;43708;48.828;9.166;2023-02-28T14:51:38;20.20;59.00
57892;DHT22;43708;48.828;9.166;2023-02-28T14:54:03;20.30;58.90
57892;DHT22;43708;48.828;9.166;2023-02-28T14:56:35;20.30;58.90
57892;DHT22;43708;48.828;9.166;2023-02-28T14:59:03;20.40;58.90
57892;DHT22;43708;48.828;9.166;2023-02-28T15:01:29;20.40;58.80
57892;DHT22;43708;48.828;9.166;2023-02-28T15:04:05;20.40;58.70
57892;DHT22;43708;48.828;9.166;2023-02-28T15:06:32;20.40;58.70
57892;DHT22;43708;48.828;9.166;2023-02-28T15:09:15;20.40;58.60
57892;DHT22;43708;48.828;9.166;2023-02-28T15:11:41;20.40;58.60
57892;DHT22;43708;48.828;9.166;2023-02-28T15:14:28;20.40;58.60
57892;DHT22;43708;48.828;9.166;2023-02-28T15:17:11;20.50;58.60
57892;DHT22;43708;48.828;9.166;2023-02-28T15:19:42;20.50;58.60
57892;DHT22;43708;48.828;9.166;2023-02-28T15:22:15;20.50;58.60
57892;DHT22;43708;48.828;9.166;2023-02-28T15:24:47;20.50;58.60
57892;DHT22;43708;48.828;9.166;2023-02-28T15:27:44;20.50;58.60
57892;DHT22;43708;48.828;9.166;2023-02-28T15:30:20;20.50;58.60
57892;DHT22;43708;48.828;9.166;2023-02-28T15:33:06;20.40;58.60
57892;DHT22;43708;48.828;9.166;2023-02-28T15:35:34;20.50;58.60
57892;DHT22;43708;48.828;9.166;2023-02-28T15:38:27;20.40;58.70
57892;DHT22;43708;48.828;9.166;2023-02-28T15:40:57;20.30;58.80
57892;DHT22;43708;48.828;9.166;2023-02-28T15:43:37;20.30;58.90
57892;DHT22;43708;48.828;9.166;2023-02-28T15:46:04;20.20;58.90
57892;DHT22;43708;48.828;9.166;2023-02-28T15:48:34;20.10;58.90
57892;DHT22;43708;48.828;9.166;2023-02-28T15:51:08;20.00;59.00
57892;DHT22;43708;48.828;9.166;2023-02-28T15:53:57;20.00;59.00
57892;DHT22;43708;48.828;9.166;2023-02-28T15:56:29;20.00;59.00
57892;DHT22;43708;48.828;9.166;2023-02-28T15:58:56;19.90;59.10
57892;DHT22;43708;48.828;9.166;2023-02-28T16:01:28;19.90;59.10
57892;DHT22;43708;48.828;9.166;2023-02-28T16:03:57;19.80;59.10
57892;DHT22;43708;48.828;9.166;2023-02-28T16:08:51;19.70;59.20
57892;DHT22;43708;48.828;9.166;2023-02-28T16:11:20;19.70;59.20
57892;DHT22;43708;48.828;9.166;2023-02-28T16:13:46;19.60;59.10
57892;DHT22;43708;48.828;9.166;2023-02-28T16:16:20;19.70;59.20
57892;DHT22;43708;48.828;9.166;2023-02-28T16:18:46;19.60;59.10
57892;DHT22;43708;48.828;9.166;2023-02-28T16:21:12;19.60;59.10
57892;DHT22;43708;48.828;9.166;2023-02-28T16:23:37;19.60;59.20
57892;DHT22;43708;48.828;9.166;2023-02-28T16:26:04;19.60;59.10
57892;DHT22;43708;48.828;9.166;2023-02-28T16:28:38;19.60;58.90
57892;DHT22;43708;48.828;9.166;2023-02-28T16:31:06;19.50;58.70
57892;DHT22;43708;48.828;9.166;2023-02-28T16:33:32;19.40;58.60
57892;DHT22;43708;48.828;9.166;2023-02-28T16:35:58;19.40;58.60
57892;DHT22;43708;48.828;9.166;2023-02-28T16:38:24;19.40;58.60
57892;DHT22;43708;48.828;9.166;2023-02-28T16:40:51;19.40;58.60
57892;DHT22;43708;48.828;9.166;2023-02-28T16:43:19;19.40;58.50
57892;DHT22;43708;48.828;9.166;2023-02-28T16:45:46;19.40;58.50
57892;DHT22;43708;48.828;9.166;2023-02-28T16:48:14;19.40;58.40
57892;DHT22;43708;48.828;9.166;2023-02-28T16:50:40;19.40;58.40
57892;DHT22;43708;48.828;9.166;2023-02-28T16:53:06;19.40;58.40
57892;DHT22;43708;48.828;9.166;2023-02-28T16:55:32;19.50;58.40
57892;DHT22;43708;48.828;9.166;2023-02-28T16:57:59;19.40;58.40
57892;DHT22;43708;48.828;9.166;2023-02-28T17:00:27;19.50;58.50
57892;DHT22;43708;48.828;9.166;2023-02-28T17:02:53;19.50;58.50
57892;DHT22;43708;48.828;9.166;2023-02-28T17:05:19;19.50;58.50
57892;DHT22;43708;48.828;9.166;2023-02-28T17:07:45;19.50;58.40
57892;DHT22;43708;48.828;9.166;2023-02-28T17:10:23;19.50;58.40
57892;DHT22;43708;48.828;9.166;2023-02-28T17:12:49;19.50;58.40
57892;DHT22;43708;48.828;9.166;2023-02-28T17:15:16;19.40;58.30
57892;DHT22;43708;48.828;9.166;2023-02-28T17:17:43;19.50;58.30
57892;DHT22;43708;48.828;9.166;2023-02-28T17:20:13;19.50;58.30
57892;DHT22;43708;48.828;9.166;2023-02-28T17:22:39;19.50;58.30
57892;DHT22;43708;48.828;9.166;2023-02-28T17:25:05;19.40;58.30
57892;DHT22;43708;48.828;9.166;2023-02-28T17:27:31;19.40;58.30
57892;DHT22;43708;48.828;9.166;2023-02-28T17:29:56;19.40;57.90
57892;DHT22;43708;48.828;9.166;2023-02-28T17:32:22;19.10;57.60
57892;DHT22;43708;48.828;9.166;2023-02-28T17:34:47;18.90;57.50
57892;DHT22;43708;48.828;9.166;2023-02-28T17:37:13;19.00;57.50
57892;DHT22;43708;48.828;9.166;2023-02-28T17:39:38;19.20;57.10
57892;DHT22;43708;48.828;9.166;2023-02-28T17:42:04;19.50;56.70
57892;DHT22;43708;48.828;9.166;2023-02-28T17:44:30;19.80;56.20
57892;DHT22;43708;48.828;9.166;2023-02-28T17:46:56;20.10;55.80
57892;DHT22;43708;48.828;9.166;2023-02-28T17:49:22;20.30;56.00